Garden City, Texas
Current Conditions -  °F | °C
As of 7:55 PM on Wednesday 26 Nov 2014 (Local Time) from KBPG Reporting Station
Clear Clear  
Wind Chill: 41°   Ceiling: Unl
Heat Index: 45°   Visibility: 7mi
Dew Point: 32°   Wind: 8mph
Humidity: 60%   Direction: 60°ENE
Pressure: 30.34"   Gusts: NA
Location:  31.86°N, 101.48°W
Report Text: KBPG 270155Z AUTO 06007KT 7SM CLR 07/00 A3034 RMK AO2 T00720000
Loading
Personal Weather Stations






























Interactive Weather Map New forecast layout! Learn more

10-Day Weather Forecast

Advertisements
Track Severe Weather on mobile